Weather at Reelfoot Lake Airport

Public forecast

Using degrees Fahrenheit for public forecast. Weather courtesy of forecast.io.

Closest aviation weather report (METAR) to Reelfoot Lake Airport

Closest report is Everett-Stewart Regional Airport, 18.3 nm (33.9 km) ESE. Retrieved 2021/12/01 12:35 UTC (6 minutes ago):

KUCY 011235Z AUTO 17006KT 10SM CLR 08/07 A3002 RMK A01

Closest aviation forecast (TAF) to Reelfoot Lake Airport

Closest forecast is Barkley Regional Airport, 44.7 nm (82.7 km) NE. Retrieved 2021/12/01 12:48 UTC (0 seconds ago):

TAF KPAH 011147Z 0112/0212 16005KT P6SM BKN200 FM011400 19006KT P6SM BKN180 FM011700 23009G16KT P6SM BKN100 FM020000 24004KT P6SM FEW250